createdAt,value
2023-05-18T00:02:05.843Z,82.23
2023-05-18T00:04:37.395Z,82.28
2023-05-18T00:04:50.299Z,82.28
2023-05-18T00:07:05.039Z,83.48
2023-05-18T00:09:35.547Z,83.63
2023-05-18T00:09:50.245Z,83.63
2023-05-18T00:12:03.810Z,82.84
2023-05-18T00:14:31.011Z,83.64
2023-05-18T00:14:50.188Z,83.64
2023-05-18T00:16:58.003Z,83.24
2023-05-18T00:19:25.183Z,84.06
2023-05-18T00:19:50.225Z,84.06
2023-05-18T00:21:52.634Z,83.41
2023-05-18T00:24:19.591Z,84.38
2023-05-18T00:24:50.213Z,84.38
2023-05-18T00:26:47.600Z,84.55
2023-05-18T00:29:14.014Z,84.20
2023-05-18T00:29:50.187Z,84.20
2023-05-18T00:31:40.828Z,84.21
2023-05-18T00:34:10.645Z,85.11
2023-05-18T00:34:50.216Z,85.11
2023-05-18T00:36:38.132Z,84.80
2023-05-18T00:39:06.288Z,85.50
2023-05-18T00:39:50.204Z,85.50
2023-05-18T00:41:33.126Z,86.14
2023-05-18T00:44:00.723Z,85.01
2023-05-18T00:44:50.316Z,85.01
2023-05-18T00:46:28.671Z,86.05
2023-05-18T00:48:57.418Z,86.34
2023-05-18T00:49:50.203Z,86.34
2023-05-18T00:51:24.792Z,86.53
2023-05-18T00:53:52.617Z,86.70
2023-05-18T00:54:50.220Z,86.70
2023-05-18T00:56:23.690Z,86.93
2023-05-18T00:58:55.808Z,88.05
2023-05-18T00:59:50.204Z,88.05
2023-05-18T01:01:29.511Z,88.50
2023-05-18T01:03:57.922Z,88.26
2023-05-18T01:04:50.223Z,88.26
2023-05-18T01:06:26.982Z,89.07
2023-05-18T01:08:54.718Z,90.03
2023-05-18T01:09:50.235Z,90.03
2023-05-18T01:11:24.292Z,88.65
2023-05-18T01:14:18.163Z,89.64
2023-05-18T01:14:50.202Z,89.64
2023-05-18T01:17:33.491Z,89.00
2023-05-18T01:19:50.212Z,89.00
2023-05-18T01:20:24.583Z,88.55
2023-05-18T01:23:12.312Z,88.91
2023-05-18T01:24:50.224Z,88.91
2023-05-18T01:25:54.097Z,89.35
2023-05-18T01:28:27.441Z,89.55
2023-05-18T01:29:50.203Z,89.55
2023-05-18T01:30:54.828Z,90.38
2023-05-18T01:33:21.334Z,90.02
2023-05-18T01:34:50.280Z,90.02
2023-05-18T01:35:50.485Z,89.87
2023-05-18T01:38:24.196Z,89.80
2023-05-18T01:39:50.207Z,89.80
2023-05-18T01:40:59.738Z,90.18
2023-05-18T01:43:33.192Z,90.15
2023-05-18T01:44:50.336Z,90.15
2023-05-18T01:46:08.716Z,90.72
2023-05-18T01:48:38.968Z,90.63
2023-05-18T01:49:50.190Z,90.63
2023-05-18T01:51:06.549Z,90.21
2023-05-18T01:53:39.177Z,90.36
2023-05-18T01:54:50.215Z,90.36
2023-05-18T01:56:07.972Z,91.04
2023-05-18T01:58:37.901Z,91.00
2023-05-18T01:59:50.201Z,91.00
2023-05-18T02:01:04.877Z,92.00
2023-05-18T02:03:33.051Z,91.21
2023-05-18T02:04:50.205Z,91.21
2023-05-18T02:05:59.650Z,92.48
2023-05-18T02:08:26.460Z,92.82
2023-05-18T02:09:50.210Z,92.82
2023-05-18T02:10:54.988Z,91.82
2023-05-18T02:13:21.490Z,93.17
2023-05-18T02:14:50.205Z,93.17
2023-05-18T02:15:48.002Z,92.48
2023-05-18T02:18:14.435Z,93.52
2023-05-18T02:19:50.249Z,93.52
2023-05-18T02:20:41.069Z,93.73
2023-05-18T02:23:07.503Z,94.27
2023-05-18T02:24:50.197Z,94.27
2023-05-18T02:25:33.895Z,94.27
2023-05-18T02:28:00.394Z,94.37
2023-05-18T02:29:50.221Z,94.37
2023-05-18T02:30:26.795Z,94.67
2023-05-18T02:32:57.402Z,93.81
2023-05-18T02:34:50.260Z,93.81
2023-05-18T02:35:23.933Z,95.22
2023-05-18T02:37:50.399Z,95.44
2023-05-18T02:39:50.234Z,95.44
2023-05-18T02:40:17.024Z,95.63
2023-05-18T02:42:43.518Z,96.05
2023-05-18T02:44:50.303Z,96.05
2023-05-18T02:45:10.370Z,96.71
2023-05-18T02:47:36.901Z,97.87
2023-05-18T02:49:50.226Z,97.87
2023-05-18T02:50:03.672Z,98.76
2023-05-18T02:52:30.169Z,98.43
2023-05-18T02:54:50.223Z,98.43
2023-05-18T02:54:56.719Z,100.00
2023-05-18T02:57:23.155Z,100.00
2023-05-18T02:59:49.682Z,100.00
2023-05-18T02:59:50.214Z,100.00
2023-05-18T03:02:16.642Z,100.00
2023-05-18T03:04:43.574Z,100.00
2023-05-18T03:04:50.201Z,100.00
2023-05-18T03:07:10.507Z,100.00
2023-05-18T03:09:37.958Z,100.00
2023-05-18T03:09:50.225Z,100.00
2023-05-18T03:12:04.733Z,100.00
2023-05-18T03:14:31.249Z,100.00
2023-05-18T03:14:50.201Z,100.00
2023-05-18T03:16:58.069Z,100.00
2023-05-18T03:19:24.849Z,100.00
2023-05-18T03:19:50.266Z,100.00
2023-05-18T03:21:51.404Z,100.00
2023-05-18T03:24:18.057Z,100.00
2023-05-18T03:24:50.193Z,100.00
2023-05-18T03:26:44.658Z,100.00
2023-05-18T03:29:13.850Z,100.00
2023-05-18T03:29:50.254Z,100.00
2023-05-18T03:31:40.878Z,100.00
2023-05-18T03:34:07.500Z,100.00
2023-05-18T03:34:50.351Z,100.00
2023-05-18T03:36:35.598Z,100.00
2023-05-18T03:39:02.316Z,100.00
2023-05-18T03:39:50.216Z,100.00
2023-05-18T03:41:29.962Z,100.00
2023-05-18T03:43:56.645Z,100.00
2023-05-18T03:44:50.281Z,100.00
2023-05-18T03:46:23.272Z,100.00
2023-05-18T03:48:50.035Z,100.00
2023-05-18T03:49:50.215Z,100.00
2023-05-18T03:51:16.440Z,100.00
2023-05-18T03:53:43.006Z,100.00
2023-05-18T03:54:50.242Z,100.00
2023-05-18T03:56:09.557Z,100.00
2023-05-18T03:58:36.180Z,100.00
2023-05-18T03:59:50.216Z,100.00
2023-05-18T04:01:02.670Z,100.00
2023-05-18T04:03:30.481Z,100.00
2023-05-18T04:04:50.260Z,100.00
2023-05-18T04:05:57.137Z,100.00
2023-05-18T04:08:25.642Z,100.00
2023-05-18T04:09:50.234Z,100.00
2023-05-18T04:10:52.415Z,100.00
2023-05-18T04:13:19.056Z,100.00
2023-05-18T04:14:50.263Z,100.00
2023-05-18T04:15:45.879Z,100.00
2023-05-18T04:18:13.709Z,100.00
2023-05-18T04:19:50.327Z,100.00
2023-05-18T04:20:42.272Z,100.00
2023-05-18T04:23:10.144Z,99.30
2023-05-18T04:24:50.217Z,99.30
2023-05-18T04:25:36.647Z,96.41
2023-05-18T04:28:03.152Z,92.74
2023-05-18T04:29:50.257Z,92.74
2023-05-18T04:30:31.116Z,89.67
2023-05-18T04:33:00.527Z,86.53
2023-05-18T04:34:50.327Z,86.53
2023-05-18T04:35:27.486Z,83.99
2023-05-18T04:37:54.688Z,80.99
2023-05-18T04:39:50.215Z,80.99
2023-05-18T04:40:21.176Z,79.43
2023-05-18T04:42:48.438Z,76.91
2023-05-18T04:44:50.290Z,76.91
2023-05-18T04:45:19.520Z,74.97
2023-05-18T04:47:47.891Z,73.74
2023-05-18T04:49:50.204Z,73.74
2023-05-18T04:50:18.162Z,72.06
2023-05-18T04:52:48.857Z,70.43
2023-05-18T04:54:50.226Z,70.43
2023-05-18T04:55:26.048Z,69.08
2023-05-18T04:57:56.984Z,66.36
2023-05-18T04:59:50.241Z,66.36
2023-05-18T05:00:24.888Z,65.89
2023-05-18T05:02:51.682Z,64.35
2023-05-18T05:04:50.230Z,64.35
2023-05-18T05:05:18.964Z,62.89
2023-05-18T05:07:45.508Z,62.08
2023-05-18T05:09:50.218Z,62.08
2023-05-18T05:10:11.951Z,60.34
2023-05-18T05:12:38.624Z,61.06
2023-05-18T05:14:50.227Z,61.06
2023-05-18T05:15:05.593Z,59.86
2023-05-18T05:17:32.065Z,59.72
2023-05-18T05:19:50.255Z,59.72
2023-05-18T05:19:58.557Z,58.82
2023-05-18T05:22:25.085Z,57.67
2023-05-18T05:24:50.218Z,57.67
2023-05-18T05:24:51.594Z,57.37
2023-05-18T05:27:18.844Z,56.19
2023-05-18T05:29:50.228Z,55.43
2023-05-18T05:29:50.370Z,55.43
2023-05-18T05:32:16.625Z,54.95
2023-05-18T05:34:47.916Z,54.39
2023-05-18T05:34:50.243Z,54.39
2023-05-18T05:37:14.360Z,53.89
2023-05-18T05:39:40.844Z,53.31
2023-05-18T05:39:50.221Z,53.31
2023-05-18T05:42:08.511Z,53.89
2023-05-18T05:44:35.585Z,54.17
2023-05-18T05:44:50.286Z,54.17
2023-05-18T05:47:02.254Z,54.31
2023-05-18T05:49:28.836Z,53.21
2023-05-18T05:49:50.248Z,53.21
2023-05-18T05:51:55.382Z,52.86
2023-05-18T05:54:22.158Z,53.33
2023-05-18T05:54:50.218Z,53.33
2023-05-18T05:56:48.638Z,52.26
2023-05-18T05:59:15.624Z,52.60
2023-05-18T05:59:50.227Z,52.60
2023-05-18T06:01:42.115Z,52.21
2023-05-18T06:04:10.928Z,51.75
2023-05-18T06:04:50.230Z,51.75
2023-05-18T06:06:38.511Z,51.83
2023-05-18T06:09:05.167Z,52.51
2023-05-18T06:09:50.199Z,52.51
2023-05-18T06:11:31.689Z,52.94
2023-05-18T06:13:58.267Z,53.33
2023-05-18T06:14:50.239Z,53.33
2023-05-18T06:16:25.375Z,54.42
2023-05-18T06:18:51.858Z,56.11
2023-05-18T06:19:50.221Z,56.11
2023-05-18T06:21:18.346Z,56.71
2023-05-18T06:23:44.912Z,56.39
2023-05-18T06:24:50.204Z,56.39
2023-05-18T06:26:11.404Z,58.13
2023-05-18T06:28:37.821Z,59.37
2023-05-18T06:29:50.213Z,59.37
2023-05-18T06:31:04.332Z,59.82
2023-05-18T06:33:31.222Z,60.74
2023-05-18T06:34:51.262Z,60.74
2023-05-18T06:35:57.859Z,61.17
2023-05-18T06:38:24.312Z,61.49
2023-05-18T06:39:50.338Z,61.49
2023-05-18T06:40:50.749Z,60.88
2023-05-18T06:43:17.162Z,62.59
2023-05-18T06:44:50.250Z,62.59
2023-05-18T06:45:43.631Z,61.43
2023-05-18T06:48:10.090Z,62.32
2023-05-18T06:49:50.214Z,62.32
2023-05-18T06:50:36.570Z,62.61
2023-05-18T06:53:03.112Z,62.45
2023-05-18T06:54:50.234Z,62.45
2023-05-18T06:55:29.758Z,61.90
2023-05-18T06:57:58.276Z,62.67
2023-05-18T06:59:50.288Z,62.67
2023-05-18T07:00:25.001Z,62.22
2023-05-18T07:02:51.592Z,61.43
2023-05-18T07:04:50.248Z,61.43
2023-05-18T07:05:18.304Z,60.79
2023-05-18T07:07:44.871Z,60.04
2023-05-18T07:09:50.230Z,60.04
2023-05-18T07:10:11.662Z,60.29
2023-05-18T07:12:38.061Z,60.71
2023-05-18T07:14:50.251Z,60.71
2023-05-18T07:15:05.008Z,59.64
2023-05-18T07:17:31.546Z,59.15
2023-05-18T07:19:50.254Z,59.15
2023-05-18T07:19:58.053Z,58.91
2023-05-18T07:22:24.522Z,59.72
2023-05-18T07:24:51.072Z,59.70
2023-05-18T07:24:51.208Z,59.70
2023-05-18T07:27:17.500Z,60.66
2023-05-18T07:29:44.081Z,59.94
2023-05-18T07:29:50.239Z,59.94
2023-05-18T07:32:10.504Z,59.05
2023-05-18T07:34:36.859Z,58.26
2023-05-18T07:34:50.285Z,58.26
2023-05-18T07:37:03.432Z,58.78
2023-05-18T07:39:29.935Z,57.67
2023-05-18T07:39:50.297Z,57.67
2023-05-18T07:41:56.788Z,56.35
2023-05-18T07:44:23.573Z,56.13
2023-05-18T07:44:50.264Z,56.13
2023-05-18T07:46:51.415Z,57.14
2023-05-18T07:49:17.906Z,56.55
2023-05-18T07:49:50.227Z,56.55
2023-05-18T07:51:44.491Z,55.25
2023-05-18T07:54:11.022Z,55.45
2023-05-18T07:54:50.243Z,55.45
2023-05-18T07:56:37.462Z,54.25
2023-05-18T07:59:03.933Z,53.82
2023-05-18T07:59:50.287Z,53.82
2023-05-18T08:01:32.060Z,54.43
2023-05-18T08:03:58.788Z,54.80
2023-05-18T08:04:50.216Z,54.80
2023-05-18T08:06:25.365Z,55.10
2023-05-18T08:08:51.935Z,55.03
2023-05-18T08:09:50.227Z,55.03
2023-05-18T08:11:18.551Z,54.71
2023-05-18T08:13:44.982Z,54.14
2023-05-18T08:14:50.283Z,54.14
2023-05-18T08:16:12.536Z,55.62
2023-05-18T08:18:40.278Z,53.03
2023-05-18T08:19:50.237Z,53.03
2023-05-18T08:21:10.183Z,52.45
2023-05-18T08:23:36.969Z,52.64
2023-05-18T08:24:50.245Z,52.64
2023-05-18T08:26:03.666Z,52.11
2023-05-18T08:28:31.136Z,52.94
2023-05-18T08:29:50.228Z,52.94
2023-05-18T08:30:57.770Z,52.79
2023-05-18T08:33:24.314Z,53.55
2023-05-18T08:34:50.333Z,53.55
2023-05-18T08:35:50.827Z,51.13
2023-05-18T08:38:17.378Z,51.45
2023-05-18T08:39:50.325Z,51.45
2023-05-18T08:41:07.522Z,49.85
2023-05-18T08:43:38.146Z,50.59
2023-05-18T08:44:50.249Z,50.59
2023-05-18T08:46:13.871Z,50.78
2023-05-18T08:48:44.218Z,50.19
2023-05-18T08:49:50.230Z,50.19
2023-05-18T08:51:11.532Z,48.42
2023-05-18T08:53:39.100Z,49.45
2023-05-18T08:54:50.257Z,49.45
2023-05-18T08:56:05.781Z,47.88
2023-05-18T08:58:37.791Z,47.81
2023-05-18T08:59:50.231Z,47.81
2023-05-18T09:01:04.622Z,47.66
2023-05-18T09:03:31.828Z,48.53
2023-05-18T09:04:50.279Z,48.53
2023-05-18T09:05:59.475Z,49.59
2023-05-18T09:08:26.701Z,48.88
2023-05-18T09:09:50.245Z,48.88
2023-05-18T09:10:57.667Z,48.92
2023-05-18T09:13:24.175Z,48.37
2023-05-18T09:14:50.272Z,48.37
2023-05-18T09:15:51.406Z,47.93
2023-05-18T09:18:17.880Z,49.81
2023-05-18T09:19:50.244Z,49.81
2023-05-18T09:20:45.402Z,49.26
2023-05-18T09:23:12.615Z,47.81
2023-05-18T09:24:50.246Z,47.81
2023-05-18T09:25:44.657Z,48.54
2023-05-18T09:28:13.418Z,48.18
2023-05-18T09:29:50.257Z,48.18
2023-05-18T09:30:41.863Z,46.83
2023-05-18T09:33:19.279Z,47.25
2023-05-18T09:34:50.319Z,47.25
2023-05-18T09:35:48.737Z,48.51
2023-05-18T09:38:22.200Z,50.13
2023-05-18T09:39:50.228Z,50.13
2023-05-18T09:40:50.072Z,49.85
2023-05-18T09:43:18.850Z,48.81
2023-05-18T09:44:50.256Z,48.81
2023-05-18T09:45:47.869Z,49.31
2023-05-18T09:48:17.260Z,49.06
2023-05-18T09:49:50.210Z,49.06
2023-05-18T09:50:45.100Z,49.03
2023-05-18T09:53:14.058Z,48.33
2023-05-18T09:54:50.227Z,48.33
2023-05-18T09:55:48.506Z,47.53
2023-05-18T09:58:15.788Z,46.95
2023-05-18T09:59:50.240Z,46.95
2023-05-18T10:00:45.107Z,47.74
2023-05-18T10:03:23.398Z,46.31
2023-05-18T10:04:50.370Z,46.31
2023-05-18T10:05:50.464Z,47.59
2023-05-18T10:08:17.741Z,46.97
2023-05-18T10:09:50.248Z,46.97
2023-05-18T10:10:46.213Z,46.80
2023-05-18T10:13:19.513Z,47.82
2023-05-18T10:14:50.269Z,47.82
2023-05-18T10:15:47.811Z,48.13
2023-05-18T10:18:20.326Z,47.72
2023-05-18T10:19:50.209Z,47.72
2023-05-18T10:20:48.294Z,45.56
2023-05-18T10:23:15.580Z,44.62
2023-05-18T10:24:50.235Z,44.62
2023-05-18T10:25:45.436Z,47.42
2023-05-18T10:28:12.343Z,45.34
2023-05-18T10:29:50.239Z,45.34
2023-05-18T10:30:43.920Z,44.40
2023-05-18T10:33:20.613Z,46.21
2023-05-18T10:34:50.334Z,46.21
2023-05-18T10:35:55.433Z,45.10
2023-05-18T10:38:24.159Z,46.76
2023-05-18T10:39:50.229Z,46.76
2023-05-18T10:40:53.708Z,46.76
2023-05-18T10:43:24.180Z,46.73
2023-05-18T10:44:50.320Z,46.73
2023-05-18T10:45:55.800Z,45.49
2023-05-18T10:48:23.925Z,45.73
2023-05-18T10:49:50.275Z,45.73
2023-05-18T10:50:52.869Z,45.30
2023-05-18T10:53:24.186Z,44.73
2023-05-18T10:54:50.260Z,44.73
2023-05-18T10:55:51.761Z,43.24
2023-05-18T10:58:20.211Z,44.75
2023-05-18T10:59:50.240Z,44.75
2023-05-18T11:00:51.270Z,44.35
2023-05-18T11:03:19.826Z,44.12
2023-05-18T11:04:51.948Z,44.12
2023-05-18T11:06:06.861Z,47.28
2023-05-18T11:08:33.791Z,46.95
2023-05-18T11:09:50.268Z,46.95
2023-05-18T11:11:05.080Z,46.35
2023-05-18T11:13:32.931Z,46.95
2023-05-18T11:14:50.258Z,46.95
2023-05-18T11:15:59.590Z,45.32
2023-05-18T11:18:44.372Z,45.05
2023-05-18T11:19:50.254Z,45.05
2023-05-18T11:21:21.894Z,43.26
2023-05-18T11:24:20.651Z,44.40
2023-05-18T11:24:50.260Z,44.40
2023-05-18T11:26:54.840Z,45.79
2023-05-18T11:29:23.921Z,45.39
2023-05-18T11:29:57.801Z,45.39
2023-05-18T11:31:55.189Z,46.89
2023-05-18T11:34:45.287Z,46.02
2023-05-18T11:34:50.356Z,46.02
2023-05-18T11:37:13.954Z,46.15
2023-05-18T11:39:51.806Z,47.94
2023-05-18T11:39:59.674Z,47.94
2023-05-18T11:42:23.109Z,48.01
2023-05-18T11:44:55.723Z,46.97
2023-05-18T11:44:56.093Z,46.97
2023-05-18T11:47:23.675Z,44.68
2023-05-18T11:49:53.140Z,44.84
2023-05-18T11:49:53.251Z,44.84
2023-05-18T11:52:24.620Z,45.19
2023-05-18T11:54:59.132Z,44.67
2023-05-18T11:54:59.334Z,44.67
2023-05-18T11:57:38.127Z,43.45
2023-05-18T11:59:50.253Z,43.45
2023-05-18T12:00:12.131Z,43.10
2023-05-18T12:02:42.496Z,42.63
2023-05-18T12:04:50.251Z,42.63
2023-05-18T12:05:10.046Z,42.89
2023-05-18T12:07:37.232Z,45.18
2023-05-18T12:09:50.317Z,45.18
2023-05-18T12:10:06.821Z,46.86
2023-05-18T12:12:34.101Z,47.03
2023-05-18T12:14:50.238Z,47.03
2023-05-18T12:15:02.649Z,47.67
2023-05-18T12:17:40.404Z,48.18
2023-05-18T12:19:50.279Z,48.18
2023-05-18T12:20:15.134Z,47.33
2023-05-18T12:22:43.757Z,46.32
2023-05-18T12:24:50.243Z,46.32
2023-05-18T12:25:11.264Z,45.98
2023-05-18T12:27:40.268Z,46.08
2023-05-18T12:29:50.267Z,46.08
2023-05-18T12:30:09.452Z,46.65
2023-05-18T12:32:35.986Z,46.66
2023-05-18T12:34:50.411Z,46.66
2023-05-18T12:35:03.510Z,46.23
2023-05-18T12:37:37.850Z,48.95
2023-05-18T12:39:50.244Z,48.95
2023-05-18T12:40:14.714Z,47.24
2023-05-18T12:43:00.427Z,47.51
2023-05-18T12:44:50.263Z,47.51
2023-05-18T12:45:29.073Z,46.50
2023-05-18T12:47:56.210Z,44.88
2023-05-18T12:49:50.278Z,44.88
2023-05-18T12:50:24.996Z,43.33
2023-05-18T12:52:51.508Z,44.71
2023-05-18T12:54:50.309Z,44.71
2023-05-18T12:55:22.149Z,43.71
2023-05-18T12:58:06.228Z,44.38
2023-05-18T12:59:50.267Z,44.38
2023-05-18T13:00:37.563Z,44.69
2023-05-18T13:03:07.531Z,44.46
2023-05-18T13:04:50.238Z,44.46
2023-05-18T13:05:34.304Z,43.52
2023-05-18T13:08:01.051Z,43.49
2023-05-18T13:09:50.310Z,43.49
2023-05-18T13:10:32.261Z,45.48
2023-05-18T13:13:03.420Z,44.07
2023-05-18T13:14:50.265Z,44.07
2023-05-18T13:15:35.707Z,43.84
2023-05-18T13:18:04.912Z,47.42
2023-05-18T13:19:50.273Z,47.42
2023-05-18T13:20:42.553Z,46.07
2023-05-18T13:23:10.763Z,44.90
2023-05-18T13:24:50.292Z,44.90
2023-05-18T13:25:38.156Z,46.51
2023-05-18T13:28:05.523Z,45.34
2023-05-18T13:29:50.401Z,45.34
2023-05-18T13:30:32.709Z,45.52
2023-05-18T13:32:59.891Z,46.27
2023-05-18T13:34:50.279Z,46.27
2023-05-18T13:35:31.998Z,43.82
2023-05-18T13:37:58.641Z,43.99
2023-05-18T13:39:50.243Z,43.99
2023-05-18T13:40:25.592Z,43.28
2023-05-18T13:42:52.473Z,43.94
2023-05-18T13:44:50.399Z,43.94
2023-05-18T13:45:21.522Z,44.11
2023-05-18T13:47:52.069Z,44.20
2023-05-18T13:49:50.273Z,44.20
2023-05-18T13:50:19.593Z,42.39
2023-05-18T13:52:47.597Z,43.96
2023-05-18T13:54:50.260Z,43.96
2023-05-18T13:55:14.251Z,44.54
2023-05-18T13:57:41.042Z,45.59
2023-05-18T13:59:50.254Z,45.59
2023-05-18T14:00:13.216Z,44.91
2023-05-18T14:02:44.207Z,44.02
2023-05-18T14:04:50.274Z,44.02
2023-05-18T14:05:13.606Z,43.07
2023-05-18T14:07:41.951Z,43.53
2023-05-18T14:09:50.290Z,43.53
2023-05-18T14:10:10.222Z,42.69
2023-05-18T14:12:37.116Z,43.29
2023-05-18T14:14:50.292Z,43.29
2023-05-18T14:15:04.699Z,44.37
2023-05-18T14:17:31.417Z,44.30
2023-05-18T14:19:50.362Z,44.30
2023-05-18T14:19:58.626Z,46.27
2023-05-18T14:22:26.350Z,44.65
2023-05-18T14:24:50.236Z,44.65
2023-05-18T14:24:53.894Z,44.31
2023-05-18T14:27:20.499Z,44.53
2023-05-18T14:29:47.533Z,44.31
2023-05-18T14:29:50.270Z,44.31
2023-05-18T14:32:14.189Z,44.42
2023-05-18T14:34:40.668Z,46.15
2023-05-18T14:34:50.315Z,46.15
2023-05-18T14:37:07.073Z,46.42
2023-05-18T14:39:33.631Z,44.91
2023-05-18T14:39:50.282Z,44.91
2023-05-18T14:42:00.108Z,44.96
2023-05-18T14:44:26.646Z,44.48
2023-05-18T14:44:50.387Z,44.48
2023-05-18T14:46:53.109Z,45.03
2023-05-18T14:49:19.595Z,44.53
2023-05-18T14:49:50.275Z,44.53
2023-05-18T14:51:46.119Z,44.77
2023-05-18T14:54:14.008Z,45.47
2023-05-18T14:54:50.275Z,45.47
2023-05-18T14:56:40.562Z,44.72
2023-05-18T14:59:07.218Z,45.45
2023-05-18T14:59:50.324Z,45.45
2023-05-18T15:01:33.661Z,45.05
2023-05-18T15:04:00.220Z,47.36
2023-05-18T15:04:50.280Z,47.36
2023-05-18T15:06:26.962Z,43.38
2023-05-18T15:08:53.389Z,44.53
2023-05-18T15:09:50.263Z,44.53
2023-05-18T15:11:20.719Z,43.44
2023-05-18T15:13:47.778Z,43.85
2023-05-18T15:14:50.286Z,43.85
2023-05-18T15:16:14.990Z,44.61
2023-05-18T15:18:41.881Z,45.40
2023-05-18T15:19:50.312Z,45.40
2023-05-18T15:21:08.384Z,44.69
2023-05-18T15:23:34.806Z,45.99
2023-05-18T15:24:50.289Z,45.99
2023-05-18T15:26:01.236Z,45.20
2023-05-18T15:28:27.659Z,44.71
2023-05-18T15:29:50.301Z,44.71
2023-05-18T15:30:54.684Z,46.22
2023-05-18T15:33:21.695Z,46.83
2023-05-18T15:34:50.302Z,46.83
2023-05-18T15:35:48.311Z,46.57
2023-05-18T15:38:14.792Z,47.78
2023-05-18T15:39:50.361Z,47.78
2023-05-18T15:40:43.539Z,45.93
2023-05-18T15:43:10.162Z,46.00
2023-05-18T15:44:50.292Z,46.00
2023-05-18T15:45:36.961Z,47.34
2023-05-18T15:48:03.693Z,45.98
2023-05-18T15:49:50.254Z,45.98
2023-05-18T15:50:30.397Z,46.58
2023-05-18T15:52:57.033Z,46.96
2023-05-18T15:54:50.257Z,46.96
2023-05-18T15:55:23.486Z,47.24
2023-05-18T15:57:49.980Z,48.48
2023-05-18T15:59:50.269Z,48.48
2023-05-18T16:00:16.930Z,47.99
2023-05-18T16:02:43.538Z,46.03
2023-05-18T16:04:50.274Z,46.03
2023-05-18T16:05:10.357Z,45.99
2023-05-18T16:07:37.415Z,45.69
2023-05-18T16:09:50.294Z,45.69
2023-05-18T16:10:04.064Z,46.64
2023-05-18T16:12:30.433Z,45.84
2023-05-18T16:14:50.316Z,45.84
2023-05-18T16:14:57.070Z,46.96
2023-05-18T16:17:23.516Z,46.51
2023-05-18T16:19:50.050Z,47.29
2023-05-18T16:19:50.270Z,47.29
2023-05-18T16:22:16.616Z,47.94
2023-05-18T16:24:44.609Z,45.83
2023-05-18T16:24:50.265Z,45.83
2023-05-18T16:27:11.144Z,46.45
2023-05-18T16:29:37.658Z,46.45
2023-05-18T16:29:50.277Z,46.45
2023-05-18T16:32:04.393Z,47.07
2023-05-18T16:34:30.831Z,48.24
2023-05-18T16:34:50.338Z,48.24
2023-05-18T16:36:57.271Z,47.49
2023-05-18T16:39:25.359Z,47.72
2023-05-18T16:39:50.294Z,47.72
2023-05-18T16:41:53.528Z,46.58
2023-05-18T16:44:19.927Z,47.29
2023-05-18T16:44:50.283Z,47.29
2023-05-18T16:46:46.458Z,47.58
2023-05-18T16:49:12.925Z,47.06
2023-05-18T16:49:50.264Z,47.06
2023-05-18T16:51:39.858Z,47.69
2023-05-18T16:54:06.927Z,47.88
2023-05-18T16:54:50.291Z,47.88
2023-05-18T16:56:34.131Z,47.50
2023-05-18T16:59:01.413Z,48.23
2023-05-18T16:59:50.311Z,48.23
2023-05-18T17:01:29.239Z,48.51
2023-05-18T17:03:56.239Z,48.11
2023-05-18T17:04:50.268Z,48.11
2023-05-18T17:06:22.950Z,48.93
2023-05-18T17:08:53.006Z,49.00
2023-05-18T17:09:50.300Z,49.00
2023-05-18T17:11:19.402Z,50.26
2023-05-18T17:13:45.970Z,49.44
2023-05-18T17:14:52.144Z,49.44
2023-05-18T17:16:14.240Z,49.86
2023-05-18T17:18:41.272Z,50.16
2023-05-18T17:19:50.293Z,50.16
2023-05-18T17:21:07.701Z,50.75
2023-05-18T17:23:34.156Z,50.07
2023-05-18T17:24:50.284Z,50.07
2023-05-18T17:26:05.936Z,50.22
2023-05-18T17:28:33.132Z,49.55
2023-05-18T17:29:50.308Z,23
2023-05-18T17:30:59.592Z,50.32
2023-05-18T17:33:26.308Z,50.31
2023-05-18T17:34:50.350Z,50.31
2023-05-18T17:35:52.893Z,50.39
2023-05-18T17:38:21.547Z,49.76
2023-05-18T17:39:50.279Z,49.76
2023-05-18T17:40:48.177Z,48.92
2023-05-18T17:43:14.566Z,50.63
2023-05-18T17:44:50.262Z,50.63
2023-05-18T17:45:40.999Z,51.24
2023-05-18T17:48:07.531Z,50.32
2023-05-18T17:49:50.288Z,50.32
2023-05-18T17:50:37.001Z,49.95
2023-05-18T17:53:04.698Z,50.50
2023-05-18T17:54:50.288Z,50.50
2023-05-18T17:55:31.338Z,49.79
2023-05-18T17:57:59.607Z,49.66
2023-05-18T17:59:50.313Z,49.66
2023-05-18T18:00:26.127Z,51.08
2023-05-18T18:02:52.583Z,50.41
2023-05-18T18:04:51.326Z,50.41
2023-05-18T18:05:19.138Z,50.57
2023-05-18T18:07:45.514Z,51.36
2023-05-18T18:09:50.278Z,51.36
2023-05-18T18:10:11.965Z,51.52
2023-05-18T18:12:38.452Z,51.96
2023-05-18T18:14:50.308Z,51.96
2023-05-18T18:15:05.346Z,52.05
2023-05-18T18:17:31.837Z,52.35
2023-05-18T18:19:50.288Z,52.35
2023-05-18T18:19:58.596Z,51.84
2023-05-18T18:22:25.005Z,51.04
2023-05-18T18:24:51.421Z,51.21
2023-05-18T18:24:51.594Z,51.21
2023-05-18T18:27:19.855Z,50.99
2023-05-18T18:29:46.360Z,51.65
2023-05-18T18:29:50.295Z,51.65
2023-05-18T18:32:12.899Z,52.39
2023-05-18T18:34:39.339Z,52.83
2023-05-18T18:34:50.409Z,52.83
2023-05-18T18:37:05.902Z,53.70
2023-05-18T18:39:32.409Z,54.16
2023-05-18T18:39:50.300Z,54.16
2023-05-18T18:41:58.825Z,53.81
2023-05-18T18:44:25.329Z,55.01
2023-05-18T18:44:50.311Z,55.01
2023-05-18T18:46:51.847Z,54.94
2023-05-18T18:49:18.614Z,55.89
2023-05-18T18:49:50.281Z,55.89
2023-05-18T18:51:46.576Z,56.76
2023-05-18T18:54:13.073Z,56.26
2023-05-18T18:54:50.300Z,56.26
2023-05-18T18:56:39.543Z,56.17
2023-05-18T18:59:06.161Z,56.00
2023-05-18T18:59:50.326Z,56.00
2023-05-18T19:01:32.707Z,55.37
2023-05-18T19:03:59.305Z,55.24
2023-05-18T19:04:50.339Z,55.24
2023-05-18T19:06:27.100Z,56.19
2023-05-18T19:08:53.517Z,56.92
2023-05-18T19:09:50.289Z,56.92
2023-05-18T19:11:21.955Z,56.88
2023-05-18T19:13:48.669Z,57.82
2023-05-18T19:14:50.327Z,57.82
2023-05-18T19:16:17.360Z,57.89
2023-05-18T19:18:44.769Z,58.06
2023-05-18T19:19:50.325Z,58.06
2023-05-18T19:21:11.551Z,58.04
2023-05-18T19:23:38.096Z,59.21
2023-05-18T19:24:50.292Z,59.21
2023-05-18T19:26:04.696Z,58.61
2023-05-18T19:28:31.324Z,58.90
2023-05-18T19:29:50.326Z,58.90
2023-05-18T19:30:57.799Z,59.48
2023-05-18T19:33:24.296Z,59.23
2023-05-18T19:34:50.425Z,59.23
2023-05-18T19:35:52.852Z,60.22
2023-05-18T19:38:19.441Z,59.86
2023-05-18T19:39:50.341Z,59.86
2023-05-18T19:40:45.989Z,60.42
2023-05-18T19:43:12.483Z,60.63
2023-05-18T19:44:50.351Z,60.63
2023-05-18T19:45:39.029Z,60.13
2023-05-18T19:48:05.941Z,61.28
2023-05-18T19:49:50.333Z,61.28
2023-05-18T19:50:32.511Z,61.07
2023-05-18T19:52:58.961Z,61.20
2023-05-18T19:54:50.346Z,61.20
2023-05-18T19:55:25.799Z,60.82
2023-05-18T19:57:52.145Z,60.74
2023-05-18T19:59:50.337Z,60.74
2023-05-18T20:00:18.653Z,61.88
2023-05-18T20:02:45.260Z,61.74
2023-05-18T20:04:50.313Z,61.74
2023-05-18T20:05:12.733Z,61.39
2023-05-18T20:07:39.680Z,61.93
2023-05-18T20:09:50.305Z,61.93
2023-05-18T20:10:06.644Z,62.37
2023-05-18T20:12:33.101Z,62.97
2023-05-18T20:14:50.298Z,62.97
2023-05-18T20:14:59.577Z,63.49
2023-05-18T20:17:26.142Z,63.36
2023-05-18T20:19:50.383Z,63.36
2023-05-18T20:19:53.416Z,63.49
2023-05-18T20:22:22.135Z,63.68
2023-05-18T20:24:48.913Z,63.88
2023-05-18T20:24:50.308Z,63.88
2023-05-18T20:27:15.825Z,63.25
2023-05-18T20:29:42.521Z,63.78
2023-05-18T20:29:50.470Z,63.78
2023-05-18T20:32:09.963Z,64.04
2023-05-18T20:34:36.665Z,64.14
2023-05-18T20:34:50.302Z,64.14
2023-05-18T20:37:03.742Z,64.21
2023-05-18T20:39:30.480Z,63.88
2023-05-18T20:39:50.309Z,63.88
2023-05-18T20:41:58.617Z,64.29
2023-05-18T20:44:27.797Z,64.43
2023-05-18T20:44:50.289Z,64.43
2023-05-18T20:46:54.481Z,65.05
2023-05-18T20:49:26.926Z,64.63
2023-05-18T20:49:50.302Z,64.63
2023-05-18T20:51:53.433Z,65.09
2023-05-18T20:54:21.338Z,65.44
2023-05-18T20:54:50.290Z,65.44
2023-05-18T20:56:48.184Z,65.55
2023-05-18T20:59:16.156Z,65.60
2023-05-18T20:59:50.296Z,65.60
2023-05-18T21:01:42.933Z,66.06
2023-05-18T21:04:12.008Z,65.96
2023-05-18T21:04:50.271Z,65.96
2023-05-18T21:06:40.621Z,66.19
2023-05-18T21:09:07.939Z,66.42
2023-05-18T21:09:50.278Z,66.42
2023-05-18T21:11:34.621Z,66.93
2023-05-18T21:14:01.190Z,66.90
2023-05-18T21:14:50.303Z,66.90
2023-05-18T21:16:27.836Z,67.83
2023-05-18T21:18:54.358Z,67.89